Time;durP1;ratioP1;P1;durP2;ratioP2;P2;SDS_P1;SDS_P2;PMS_P1;PMS_P2;Temp;Humidity;BMP_temperature;BMP_pressure;BME280_temperature;BME280_humidity;BME280_pressure;Samples;Min_cycle;Max_cycle;Signal;HPM_P1;HPM_P2
2023/06/15 00:00:25;;;;;;;11.90;9.18;;;;;;;-143.21;97.87;71673.63;5049136;28;20210;-79
2023/06/15 00:02:52;;;;;;;11.27;9.38;;;;;;;-143.21;97.51;71673.63;5052466;28;20581;-79
2023/06/15 00:05:20;;;;;;;13.43;9.80;;;;;;;-143.21;97.33;71665.69;5048512;28;20258;-79
2023/06/15 00:07:47;;;;;;;14.35;10.90;;;;;;;-143.21;97.42;71665.69;5049955;28;20573;-79
2023/06/15 00:10:14;;;;;;;13.20;10.07;;;;;;;-143.21;97.58;71661.72;5054207;28;20267;-80
2023/06/15 00:12:41;;;;;;;14.85;10.45;;;;;;;-143.21;97.22;71655.78;5048492;28;20222;-80
2023/06/15 00:15:08;;;;;;;12.30;10.25;;;;;;;-143.21;97.50;71657.75;5052208;28;20649;-80
2023/06/15 00:17:38;;;;;;;14.65;10.23;;;;;;;-143.21;97.75;71655.78;5049400;28;20198;-80
2023/06/15 00:20:08;;;;;;;14.73;11.02;;;;;;;-143.21;97.62;71653.78;5045592;28;20665;-79
2023/06/15 00:22:36;;;;;;;14.48;11.65;;;;;;;-143.21;97.65;71649.81;5045637;28;20202;-79
2023/06/15 00:25:03;;;;;;;14.07;11.25;;;;;;;-143.21;97.30;71647.84;5048962;28;20862;-79
2023/06/15 00:27:39;;;;;;;15.30;11.52;;;;;;;-143.21;97.11;71657.75;5049324;28;20700;-79
2023/06/15 00:30:09;;;;;;;14.15;10.93;;;;;;;-143.21;97.34;71655.78;5052747;28;20293;-78
2023/06/15 00:32:37;;;;;;;14.10;11.15;;;;;;;-143.21;97.45;71651.81;5046439;28;20226;-79
2023/06/15 00:35:04;;;;;;;16.63;10.95;;;;;;;-143.21;97.61;71649.81;5048593;28;20238;-79
2023/06/15 00:37:31;;;;;;;14.38;10.50;;;;;;;-143.21;96.52;71645.88;5045489;28;20209;-79
2023/06/15 00:39:58;;;;;;;14.20;11.18;;;;;;;-143.21;96.17;71645.88;5053817;28;20210;-79
2023/06/15 00:42:25;;;;;;;19.20;10.93;;;;;;;-143.21;96.27;71645.88;5048783;28;20213;-80
2023/06/15 00:44:51;;;;;;;16.50;11.75;;;;;;;-143.21;96.14;71657.75;5050928;28;20198;-79
2023/06/15 00:47:20;;;;;;;15.13;11.43;;;;;;;-143.21;96.59;71663.72;5049744;28;20272;-80
2023/06/15 00:49:49;;;;;;;15.82;11.88;;;;;;;-143.21;97.12;71661.72;5053014;28;20205;-79
2023/06/15 00:52:17;;;;;;;15.93;11.80;;;;;;;-143.21;97.46;71665.69;5051455;28;20226;-80
2023/06/15 00:54:46;;;;;;;14.60;11.57;;;;;;;-143.21;97.25;71661.72;5051930;28;20234;-80
2023/06/15 00:57:14;;;;;;;15.98;11.77;;;;;;;-143.21;97.27;71655.78;5051726;28;20212;-81
2023/06/15 00:59:42;;;;;;;13.70;11.02;;;;;;;-143.21;97.53;71655.78;5050719;28;20212;-80
2023/06/15 01:02:12;;;;;;;12.60;10.68;;;;;;;-143.21;98.06;71653.78;5050347;28;20198;-81
2023/06/15 01:04:39;;;;;;;14.55;10.45;;;;;;;-143.21;97.68;71651.81;5057882;28;20256;-80
2023/06/15 01:07:10;;;;;;;15.60;11.60;;;;;;;-143.21;97.51;71651.81;5052429;28;20198;-81
2023/06/15 01:09:41;;;;;;;17.13;11.43;;;;;;;-143.21;96.95;71645.88;5053649;28;20281;-80
2023/06/15 01:12:11;;;;;;;15.32;12.23;;;;;;;-143.21;96.98;71641.91;5051668;28;20297;-80
2023/06/15 01:14:56;;;;;;;18.38;12.27;;;;;;;-143.21;97.06;71645.88;5051967;28;20260;-81
2023/06/15 01:17:24;;;;;;;17.40;12.80;;;;;;;-143.21;97.72;71643.88;5053904;28;20205;-80
2023/06/15 01:20:03;;;;;;;16.35;12.75;;;;;;;-143.21;97.70;71639.91;5051494;28;20206;-80
2023/06/15 01:22:45;;;;;;;19.30;13.48;;;;;;;-143.21;98.07;71645.88;5055767;28;20197;-80
2023/06/15 01:25:26;;;;;;;16.25;12.63;;;;;;;-143.21;97.80;71645.88;5046624;28;20775;-81
2023/06/15 01:27:58;;;;;;;18.65;13.50;;;;;;;-143.21;97.53;71645.88;5054980;28;20198;-79
2023/06/15 01:30:26;;;;;;;18.85;13.45;;;;;;;-143.21;97.77;71639.91;5051817;28;20210;-81
2023/06/15 01:32:53;;;;;;;20.50;14.50;;;;;;;-143.21;97.83;71641.91;5054479;28;21195;-81
2023/06/15 01:35:20;;;;;;;18.25;13.77;;;;;;;-143.21;97.55;71635.94;5051498;28;20264;-81
2023/06/15 01:37:47;;;;;;;18.38;14.15;;;;;;;-143.21;97.36;71637.94;5051099;28;20206;-80
2023/06/15 01:40:14;;;;;;;19.77;15.17;;;;;;;-143.21;97.42;71639.91;5051722;28;20218;-79
2023/06/15 01:42:42;;;;;;;20.73;14.15;;;;;;;-143.21;97.22;71631.97;5051519;28;20194;-79
2023/06/15 01:45:21;;;;;;;20.67;15.27;;;;;;;-143.21;97.30;71645.88;5054944;28;20204;-80
2023/06/15 01:47:49;;;;;;;23.33;14.65;;;;;;;-143.21;97.35;71651.81;5055723;28;20206;-80
2023/06/15 01:50:18;;;;;;;19.20;14.68;;;;;;;-143.21;96.95;71647.84;5053205;28;20255;-80
2023/06/15 01:52:46;;;;;;;20.48;15.70;;;;;;;-143.21;97.06;71649.81;5053258;28;20241;-78
2023/06/15 01:55:13;;;;;;;21.60;15.70;;;;;;;-143.21;97.34;71649.81;5057607;28;20201;-78
2023/06/15 01:57:41;;;;;;;22.87;15.40;;;;;;;-143.21;97.66;71661.72;5055105;28;20217;-78
2023/06/15 02:00:12;;;;;;;20.53;15.17;;;;;;;-143.21;98.32;71649.81;5051794;28;20205;-79
2023/06/15 02:02:39;;;;;;;23.27;15.38;;;;;;;-143.21;98.17;71655.78;5054515;28;20664;-78
2023/06/15 02:05:07;;;;;;;21.15;15.25;;;;;;;-143.21;98.97;71661.72;5056267;28;20229;-78
2023/06/15 02:07:34;;;;;;;20.13;14.73;;;;;;;-143.21;99.54;71657.75;5058461;28;20220;-80
2023/06/15 02:10:01;;;;;;;18.98;14.52;;;;;;;-143.21;98.96;71655.78;5061137;28;20210;-82
2023/06/15 02:12:27;;;;;;;20.05;15.10;;;;;;;-143.21;98.81;71651.81;5051791;28;20232;-82
2023/06/15 02:14:57;;;;;;;23.15;15.75;;;;;;;-143.21;98.88;71645.88;5053582;28;20193;-82
2023/06/15 02:17:30;;;;;;;24.73;17.60;;;;;;;-143.21;98.51;71637.94;5057098;28;20707;-82
2023/06/15 02:19:57;;;;;;;22.40;16.58;;;;;;;-143.21;98.73;71645.88;5052089;28;20216;-81
2023/06/15 02:22:24;;;;;;;21.63;15.57;;;;;;;-143.21;98.52;71649.81;5051773;28;20209;-80
2023/06/15 02:24:51;;;;;;;20.98;15.45;;;;;;;-143.21;98.14;71647.84;5051386;28;20209;-80
2023/06/15 02:27:17;;;;;;;21.10;15.57;;;;;;;-143.21;98.16;71655.78;5051156;28;20229;-79
2023/06/15 02:29:44;;;;;;;21.63;14.75;;;;;;;-143.21;98.56;71653.78;5054549;28;20217;-80
2023/06/15 02:32:34;;;;;;;21.83;15.48;;;;;;;-143.21;99.45;71659.75;5050592;28;20202;-79
2023/06/15 02:35:03;;;;;;;23.00;15.73;;;;;;;-143.21;99.91;71649.81;5050481;28;20230;-78
2023/06/15 02:37:30;;;;;;;21.05;15.07;;;;;;;-143.21;99.16;71641.91;5047188;28;20217;-80
2023/06/15 02:39:57;;;;;;;22.25;15.48;;;;;;;-143.21;98.47;71645.88;5050887;28;20622;-79
2023/06/15 02:42:23;;;;;;;25.15;15.70;;;;;;;-143.21;98.90;71651.81;5053217;28;20860;-81
2023/06/15 02:44:50;;;;;;;21.92;15.48;;;;;;;-143.21;99.23;71651.81;5051738;28;20301;-80
2023/06/15 02:47:17;;;;;;;23.92;15.45;;;;;;;-143.21;99.40;71657.75;5052221;28;20565;-80
2023/06/15 02:49:46;;;;;;;19.17;14.20;;;;;;;-143.21;99.60;71645.88;5051994;28;20202;-80
2023/06/15 02:52:13;;;;;;;24.25;14.57;;;;;;;-143.21;99.06;71647.84;5053675;28;20260;-79
2023/06/15 02:54:39;;;;;;;18.33;14.32;;;;;;;-143.21;98.72;71647.84;5050159;28;20202;-80
2023/06/15 02:57:07;;;;;;;21.25;14.95;;;;;;;-143.21;99.11;71653.78;5050231;28;20206;-80
2023/06/15 02:59:34;;;;;;;17.33;13.20;;;;;;;-143.21;99.48;71657.75;5050676;28;20255;-80
2023/06/15 03:02:02;;;;;;;21.25;13.70;;;;;;;-143.21;99.00;71663.72;5050330;28;20229;-80
2023/06/15 03:04:29;;;;;;;17.88;12.70;;;;;;;-143.21;98.05;71661.72;5050617;28;20594;-82
2023/06/15 03:06:57;;;;;;;17.35;12.57;;;;;;;-143.21;97.69;71661.72;5050612;28;20205;-79
2023/06/15 03:09:25;;;;;;;17.80;13.37;;;;;;;-143.21;97.54;71653.78;5055883;28;21012;-79
2023/06/15 03:11:51;;;;;;;17.07;13.23;;;;;;;-143.21;98.38;71661.72;5054235;28;20206;-78
2023/06/15 03:14:19;;;;;;;22.20;15.00;;;;;;;-143.21;98.67;71653.78;5054867;28;20313;-79
2023/06/15 03:16:47;;;;;;;23.30;15.33;;;;;;;-143.21;98.96;71655.78;5055511;28;20712;-81
2023/06/15 03:19:15;;;;;;;23.85;15.10;;;;;;;-143.21;99.35;71651.81;5054640;28;20208;-80
2023/06/15 03:21:42;;;;;;;27.38;15.73;;;;;;;-143.21;100.00;71641.91;5051956;28;20229;-79
2023/06/15 03:24:10;;;;;;;23.13;16.65;;;;;;;-143.21;100.00;71639.91;5049820;28;20195;-79
2023/06/15 03:26:37;;;;;;;25.37;16.43;;;;;;;-143.21;100.00;71633.97;5053719;28;20741;-81
2023/06/15 03:29:04;;;;;;;24.23;17.30;;;;;;;-143.21;100.00;71639.91;5049713;28;20213;-81
2023/06/15 03:31:33;;;;;;;20.58;15.57;;;;;;;-143.21;100.00;71645.88;5049009;28;20216;-80
2023/06/15 03:34:04;;;;;;;20.55;14.85;;;;;;;-143.21;100.00;71645.88;5056463;28;20238;-80
2023/06/15 03:36:31;;;;;;;23.03;16.63;;;;;;;-143.21;100.00;71649.81;5053134;28;20236;-80
2023/06/15 03:38:58;;;;;;;22.95;16.38;;;;;;;-143.21;100.00;71649.81;5049683;28;20205;-81
2023/06/15 03:41:27;;;;;;;24.60;18.40;;;;;;;-143.21;100.00;71651.81;5049626;28;20229;-82
2023/06/15 03:43:54;;;;;;;26.88;19.20;;;;;;;-143.21;100.00;71641.91;5049406;28;20210;-81
2023/06/15 03:46:20;;;;;;;29.70;20.23;;;;;;;-143.21;100.00;71637.94;5053333;28;20201;-82
2023/06/15 03:48:47;;;;;;;29.10;19.05;;;;;;;-143.21;100.00;71635.94;5049764;28;20668;-82
2023/06/15 03:51:14;;;;;;;28.35;19.05;;;;;;;-143.21;100.00;71637.94;5054455;28;20202;-82
2023/06/15 03:53:42;;;;;;;24.40;16.60;;;;;;;-143.21;100.00;71628.00;5050133;28;20308;-82
2023/06/15 03:56:09;;;;;;;26.35;18.23;;;;;;;-143.21;100.00;71631.97;5054183;28;20216;-78
2023/06/15 03:58:38;;;;;;;24.58;17.42;;;;;;;-143.21;100.00;71624.06;5053103;28;20204;-76
2023/06/15 04:01:05;;;;;;;23.85;17.13;;;;;;;-143.21;100.00;71626.03;5058705;28;20649;-76
2023/06/15 04:03:34;;;;;;;27.25;18.17;;;;;;;-143.21;100.00;71620.09;5048739;28;20289;-76
2023/06/15 04:06:03;;;;;;;22.85;16.10;;;;;;;-143.21;100.00;71620.09;5058234;28;20303;-75
2023/06/15 04:08:33;;;;;;;27.38;17.27;;;;;;;-143.21;100.00;71618.09;5052616;28;20202;-76
2023/06/15 04:11:00;;;;;;;23.88;16.77;;;;;;;-143.21;100.00;71620.09;5056022;28;20248;-76
2023/06/15 04:13:26;;;;;;;24.00;16.38;;;;;;;-143.21;100.00;71622.06;5055020;28;20279;-76
2023/06/15 04:15:55;;;;;;;21.60;16.83;;;;;;;-143.21;100.00;71622.06;5054400;28;20220;-77
2023/06/15 04:18:22;;;;;;;24.13;16.60;;;;;;;-143.21;100.00;71618.09;5049380;28;20254;-76
2023/06/15 04:20:49;;;;;;;22.23;16.08;;;;;;;-143.21;100.00;71614.13;5058930;28;20201;-76
2023/06/15 04:23:17;;;;;;;20.35;16.05;;;;;;;-143.21;100.00;71608.19;5052373;28;20230;-76
2023/06/15 04:25:45;;;;;;;20.80;15.13;;;;;;;-143.21;100.00;71594.31;5052177;28;20285;-76
2023/06/15 04:28:11;;;;;;;24.77;15.98;;;;;;;-143.21;100.00;71588.38;5059241;28;20205;-76
2023/06/15 04:30:40;;;;;;;22.50;16.30;;;;;;;-143.21;100.00;71574.47;5051380;28;20198;-75
2023/06/15 04:33:12;;;;;;;20.13;15.63;;;;;;;-143.21;100.00;71562.59;5051544;28;20229;-76
2023/06/15 04:35:40;;;;;;;20.75;15.00;;;;;;;-143.21;99.09;71560.59;5051000;28;20228;-76
2023/06/15 04:38:07;;;;;;;21.77;15.77;;;;;;;-143.21;99.03;71556.63;5065719;28;20205;-76
2023/06/15 04:40:34;;;;;;;20.05;13.82;;;;;;;-143.21;98.88;71554.66;5062526;28;20204;-76
2023/06/15 04:43:02;;;;;;;17.05;13.70;;;;;;;-143.21;98.32;71550.69;5055965;28;20205;-76
2023/06/15 04:45:29;;;;;;;18.30;14.00;;;;;;;-143.21;98.74;71558.63;5058895;28;20202;-76
2023/06/15 04:47:57;;;;;;;16.73;12.65;;;;;;;-143.21;98.51;71550.69;5067227;28;20260;-75
2023/06/15 04:50:25;;;;;;;15.45;11.75;;;;;;;-143.21;98.15;71560.59;5055640;28;20210;-76
2023/06/15 04:52:52;;;;;;;20.00;11.93;;;;;;;-143.21;97.54;71566.56;5059833;28;20197;-75
2023/06/15 04:55:19;;;;;;;18.08;12.93;;;;;;;-143.21;96.89;71564.56;5060091;28;20245;-77
2023/06/15 04:57:46;;;;;;;15.90;12.20;;;;;;;-143.21;97.12;71566.56;5051961;28;20289;-81
2023/06/15 05:00:13;;;;;;;16.90;11.70;;;;;;;-143.21;96.80;71566.56;5062347;28;20594;-80
2023/06/15 05:02:40;;;;;;;14.05;11.50;;;;;;;-143.21;96.65;71566.56;5055235;28;20210;-81
2023/06/15 05:05:07;;;;;;;17.00;12.93;;;;;;;-143.21;97.09;71568.53;5055179;28;20202;-80
2023/06/15 05:07:39;;;;;;;19.90;11.77;;;;;;;-143.21;97.35;71564.56;5053193;28;20206;-81
2023/06/15 05:10:07;;;;;;;15.27;12.02;;;;;;;-143.21;97.28;71562.59;5049782;28;20584;-80
2023/06/15 05:12:34;;;;;;;16.30;12.65;;;;;;;-143.21;96.81;71564.56;5055646;28;20204;-81
2023/06/15 05:15:00;;;;;;;15.20;11.40;;;;;;;-143.21;96.80;71568.53;5052268;28;20229;-81
2023/06/15 05:17:27;;;;;;;14.60;12.10;;;;;;;-143.21;97.09;71560.59;5059142;28;20202;-81
2023/06/15 05:19:54;;;;;;;15.40;11.82;;;;;;;-143.21;96.89;71554.66;5057942;28;20221;-81
2023/06/15 05:22:21;;;;;;;18.77;10.77;;;;;;;-143.21;95.82;71548.72;5054780;28;20213;-82
2023/06/15 05:24:49;;;;;;;14.18;10.68;;;;;;;-143.21;94.99;71556.63;5064574;28;20200;-83
2023/06/15 05:27:16;;;;;;;16.25;11.25;;;;;;;-143.21;95.22;71554.66;5052964;28;20665;-81
2023/06/15 05:29:43;;;;;;;14.65;11.55;;;;;;;-143.21;94.75;71550.69;5054088;28;20213;-79
2023/06/15 05:32:10;;;;;;;17.08;11.75;;;;;;;-143.21;95.11;71546.72;5053419;28;20202;-81
2023/06/15 05:34:37;;;;;;;12.75;11.07;;;;;;;-143.21;95.21;71536.81;5053340;28;20313;-81
2023/06/15 05:37:04;;;;;;;14.52;10.77;;;;;;;-143.21;95.13;71530.88;5056098;28;20605;-85
2023/06/15 05:39:31;;;;;;;14.38;10.43;;;;;;;-143.21;95.17;71526.91;5056232;28;20209;-83
2023/06/15 05:42:00;;;;;;;16.20;10.95;;;;;;;-143.21;94.43;71522.94;5052701;28;20726;-81
2023/06/15 05:44:27;;;;;;;13.48;11.15;;;;;;;-143.21;93.38;71522.94;5060702;28;20208;-80
2023/06/15 05:46:54;;;;;;;18.60;11.90;;;;;;;-143.21;93.23;71526.91;5058624;28;20202;-82
2023/06/15 05:49:24;;;;;;;16.80;12.05;;;;;;;-143.21;91.30;71516.97;5054007;28;20681;-81
2023/06/15 05:51:51;;;;;;;15.00;11.13;;;;;;;-143.21;92.57;71522.94;5057732;28;20334;-80
2023/06/15 05:54:18;;;;;;;14.75;11.57;;;;;;;-143.21;93.04;71526.91;5055695;28;20731;-81
2023/06/15 05:56:45;;;;;;;15.90;12.05;;;;;;;-143.21;93.28;71528.88;5051599;28;20677;-80
2023/06/15 05:59:14;;;;;;;15.27;12.23;;;;;;;-143.21;93.95;71524.91;5055470;28;20210;-80
2023/06/15 06:01:41;;;;;;;16.63;12.00;;;;;;;-143.21;93.88;71526.91;5056208;28;20911;-80
2023/06/15 06:04:07;;;;;;;15.32;11.30;;;;;;;-143.21;93.69;71522.94;5051153;28;20588;-81
2023/06/15 06:06:34;;;;;;;16.95;12.65;;;;;;;-143.21;93.68;71515.00;5055191;28;20599;-81
2023/06/15 06:09:01;;;;;;;15.70;12.13;;;;;;;-143.21;93.48;71507.06;5051650;28;20746;-81
2023/06/15 06:11:28;;;;;;;14.88;12.68;;;;;;;-143.21;92.30;71503.09;5051316;28;20205;-81
2023/06/15 06:13:55;;;;;;;17.88;12.25;;;;;;;-143.21;91.37;71495.19;5054122;28;21387;-81
2023/06/15 06:16:23;;;;;;;16.52;10.80;;;;;;;-143.21;91.33;71495.19;5051078;28;20208;-81
2023/06/15 06:18:50;;;;;;;18.52;12.85;;;;;;;-143.21;90.76;71489.22;5050623;28;20214;-81
2023/06/15 06:21:17;;;;;;;68.30;24.80;;;;;;;-143.21;90.40;71497.16;5054959;28;20214;-81
2023/06/15 06:23:43;;;;;;;82.75;28.30;;;;;;;-143.21;90.97;71503.09;5058002;28;20213;-81
2023/06/15 06:26:10;;;;;;;35.97;17.23;;;;;;;-143.21;91.60;71493.19;5051616;28;20255;-81
2023/06/15 06:28:37;;;;;;;23.15;14.00;;;;;;;-143.21;91.84;71491.22;5054774;28;20293;-79
2023/06/15 06:31:04;;;;;;;18.92;13.57;;;;;;;-143.21;90.40;71481.28;5054105;28;20202;-80
2023/06/15 06:33:32;;;;;;;40.90;20.23;;;;;;;-143.21;89.37;71469.41;5060157;28;20288;-81
2023/06/15 06:35:59;;;;;;;164.75;54.65;;;;;;;-143.21;88.65;71461.47;5050327;28;20677;-80
2023/06/15 06:38:26;;;;;;;122.10;46.25;;;;;;;-143.21;89.79;71453.53;5051155;28;20198;-81
2023/06/15 06:40:53;;;;;;;51.83;25.42;;;;;;;-143.21;90.57;71451.56;5051057;28;20217;-81
2023/06/15 06:43:20;;;;;;;26.10;17.20;;;;;;;-143.21;89.84;71435.69;5054727;28;20206;-82
2023/06/15 06:45:47;;;;;;;37.42;18.73;;;;;;;-143.21;88.35;71435.69;5050826;28;20205;-83
2023/06/15 06:48:13;;;;;;;23.70;14.10;;;;;;;-143.21;87.46;71441.63;5050706;28;20206;-83
2023/06/15 06:50:42;;;;;;;20.35;13.18;;;;;;;-143.21;88.00;71435.69;5054711;28;20202;-83
2023/06/15 06:53:08;;;;;;;17.98;12.98;;;;;;;-143.21;88.15;71435.69;5054944;28;20263;-84
2023/06/15 06:55:35;;;;;;;24.02;13.75;;;;;;;-143.21;88.57;71425.78;5051056;28;20222;-83
2023/06/15 06:58:02;;;;;;;24.70;14.13;;;;;;;-143.21;89.72;71413.88;5051545;28;20202;-83
2023/06/15 07:00:29;;;;;;;19.70;13.45;;;;;;;-143.21;88.61;71409.91;5050781;28;20201;-83
2023/06/15 07:02:56;;;;;;;18.85;12.80;;;;;;;-143.21;88.26;71398.03;5051097;28;20242;-82
2023/06/15 07:05:23;;;;;;;21.58;13.27;;;;;;;-143.21;88.54;71388.09;5051353;28;20998;-84
2023/06/15 07:07:51;;;;;;;16.55;12.88;;;;;;;-143.21;88.57;71382.16;5051395;28;20213;-83
2023/06/15 07:10:18;;;;;;;24.42;13.95;;;;;;;-143.21;88.56;71378.19;5051352;28;20225;-83
2023/06/15 07:12:45;;;;;;;18.88;13.50;;;;;;;-143.21;88.42;71366.31;5051477;28;20198;-82
2023/06/15 07:15:12;;;;;;;17.83;13.43;;;;;;;-143.21;88.65;71360.34;5057543;28;20577;-82
2023/06/15 07:17:38;;;;;;;20.13;13.88;;;;;;;-143.21;88.58;71344.50;5051231;28;20279;-83
2023/06/15 07:20:07;;;;;;;17.70;13.63;;;;;;;-143.21;88.36;71340.53;5056551;28;20706;-82
2023/06/15 07:22:34;;;;;;;20.42;14.77;;;;;;;-143.21;87.40;71330.63;5050762;28;20205;-83
2023/06/15 07:25:02;;;;;;;20.42;13.82;;;;;;;-143.21;85.74;71324.66;5050632;28;20267;-83
2023/06/15 07:27:29;;;;;;;22.55;14.32;;;;;;;-143.21;86.18;71330.63;5046424;28;20198;-83
2023/06/15 07:29:55;;;;;;;19.13;13.75;;;;;;;-143.21;85.03;71330.63;5051022;28;20186;-84
2023/06/15 07:32:22;;;;;;;17.58;13.77;;;;;;;-143.21;85.55;71332.59;5058891;28;20206;-83
2023/06/15 07:34:49;;;;;;;22.73;13.38;;;;;;;-143.21;86.03;71320.69;5050366;28;20360;-83
2023/06/15 07:37:16;;;;;;;19.55;13.98;;;;;;;-143.21;86.61;71316.75;5050711;28;20202;-84
2023/06/15 07:39:43;;;;;;;23.52;16.10;;;;;;;-143.21;86.56;71306.81;5050720;28;20202;-84
2023/06/15 07:42:11;;;;;;;24.50;15.18;;;;;;;-143.21;84.90;71308.81;5050508;28;20669;-84
2023/06/15 07:44:37;;;;;;;26.55;16.10;;;;;;;-143.21;85.31;71314.75;5051029;28;20261;-83
2023/06/15 07:47:06;;;;;;;22.83;15.00;;;;;;;-143.21;84.45;71318.72;5054000;28;20205;-83
2023/06/15 07:49:33;;;;;;;22.42;14.35;;;;;;;-143.21;83.44;71322.69;5053921;28;20205;-82
2023/06/15 07:51:59;;;;;;;23.45;14.77;;;;;;;-143.21;84.12;71318.72;5052540;28;20213;-81
2023/06/15 07:54:27;;;;;;;18.00;13.98;;;;;;;-143.21;84.70;71310.78;5049702;28;20284;-84
2023/06/15 07:56:53;;;;;;;22.13;14.32;;;;;;;-143.21;85.78;71316.75;5050153;28;20224;-83
2023/06/15 07:59:24;;;;;;;21.90;15.57;;;;;;;-143.21;86.43;71316.75;5051968;28;20200;-80
2023/06/15 08:01:51;;;;;;;20.75;14.38;;;;;;;-143.21;86.25;71308.81;5048953;28;20648;-81
2023/06/15 08:04:18;;;;;;;26.50;16.80;;;;;;;-143.21;84.86;71310.78;5052436;28;20198;-81
2023/06/15 08:06:45;;;;;;;22.38;16.13;;;;;;;-143.21;84.75;71314.75;5049174;28;20677;-80
2023/06/15 08:09:12;;;;;;;18.08;14.88;;;;;;;-143.21;85.87;71324.66;5056036;28;20243;-79
2023/06/15 08:11:39;;;;;;;21.98;15.38;;;;;;;-143.21;86.48;71322.69;5050439;28;20660;-81
2023/06/15 08:14:06;;;;;;;18.95;16.08;;;;;;;-143.21;87.10;71328.63;5053599;28;20652;-80
2023/06/15 08:16:34;;;;;;;21.02;15.73;;;;;;;-143.21;88.37;71326.66;5053259;28;20208;-81
2023/06/15 08:19:02;;;;;;;22.45;15.70;;;;;;;-143.21;89.26;71324.66;5053495;28;20213;-81
2023/06/15 08:21:29;;;;;;;23.67;17.08;;;;;;;-143.21;89.93;71320.69;5052731;28;20691;-81
2023/06/15 08:23:57;;;;;;;22.33;16.95;;;;;;;-143.21;90.34;71314.75;5056610;28;20209;-80
2023/06/15 08:26:23;;;;;;;22.63;16.33;;;;;;;-143.21;90.33;71322.69;5056657;28;20214;-82
2023/06/15 08:28:50;;;;;;;21.20;16.88;;;;;;;-143.21;90.79;71312.78;5058687;28;20834;-80
2023/06/15 08:31:18;;;;;;;20.52;15.70;;;;;;;-143.21;90.61;71318.72;5058479;28;20281;-81
2023/06/15 08:33:46;;;;;;;19.17;16.10;;;;;;;-143.21;89.95;71320.69;5053709;28;20222;-79
2023/06/15 08:36:13;;;;;;;26.58;15.82;;;;;;;-143.21;89.11;71326.66;5052437;28;20216;-79
2023/06/15 08:38:40;;;;;;;21.73;16.00;;;;;;;-143.21;88.83;71326.66;5052392;28;20194;-80
2023/06/15 08:41:07;;;;;;;19.88;15.52;;;;;;;-143.21;87.88;71336.56;5059324;28;20197;-79
2023/06/15 08:43:34;;;;;;;23.98;17.10;;;;;;;-143.21;88.64;71336.56;5055636;28;20202;-81
2023/06/15 08:46:03;;;;;;;23.90;16.45;;;;;;;-143.21;90.20;71338.53;5052837;28;20589;-81
2023/06/15 08:48:33;;;;;;;22.05;17.08;;;;;;;-143.21;90.89;71334.59;5058330;28;20197;-84
2023/06/15 08:51:02;;;;;;;25.42;18.77;;;;;;;-143.21;91.66;71344.50;5054626;28;20198;-82
2023/06/15 08:53:31;;;;;;;26.08;17.60;;;;;;;-143.21;91.26;71344.50;5053818;28;20217;-83
2023/06/15 08:55:58;;;;;;;21.73;17.50;;;;;;;-143.21;90.66;71352.44;5053422;28;20234;-83
2023/06/15 08:58:25;;;;;;;26.65;18.90;;;;;;;-143.21;91.14;71366.31;5057048;28;20217;-83
2023/06/15 09:00:54;;;;;;;30.25;18.50;;;;;;;-143.21;91.13;71374.22;5053378;28;20263;-84
2023/06/15 09:03:23;;;;;;;25.38;18.88;;;;;;;-143.21;91.14;71380.19;5052793;28;20198;-83
2023/06/15 09:05:50;;;;;;;25.23;18.10;;;;;;;-143.21;89.62;71396.03;5054316;28;20205;-83
2023/06/15 09:08:18;;;;;;;24.80;18.48;;;;;;;-143.21;90.32;71413.88;5056715;28;20264;-83
2023/06/15 09:10:45;;;;;;;26.00;19.20;;;;;;;-143.21;92.89;71443.63;5053406;28;20206;-83
2023/06/15 09:13:17;;;;;;;36.40;22.33;;;;;;;-143.21;94.36;71455.53;5053196;28;20214;-83
2023/06/15 09:15:50;;;;;;;31.63;20.38;;;;;;;-143.21;95.43;71471.38;5058757;28;20306;-77
2023/06/15 09:18:17;;;;;;;28.50;19.52;;;;;;;-143.21;95.67;71487.25;5052665;28;20228;-78
2023/06/15 09:20:44;;;;;;;26.38;20.35;;;;;;;-143.21;95.38;71491.22;5055446;28;20209;-78
2023/06/15 09:23:13;;;;;;;34.03;21.17;;;;;;;-143.21;95.84;71501.13;5056138;28;20197;-78
2023/06/15 09:25:51;;;;;;;29.65;20.42;;;;;;;-143.21;96.70;71507.06;5056009;28;20245;-78
2023/06/15 09:28:21;;;;;;;29.15;20.40;;;;;;;-143.21;97.47;71513.03;5051047;28;20230;-76
2023/06/15 09:30:55;;;;;;;31.25;19.77;;;;;;;-143.21;97.93;71526.91;5061149;28;20202;-77
2023/06/15 09:33:22;;;;;;;30.80;20.10;;;;;;;-143.21;98.37;71542.75;5050642;28;20233;-75
2023/06/15 09:35:58;;;;;;;25.17;17.45;;;;;;;-143.21;98.95;71558.63;5056022;28;20237;-77
2023/06/15 09:38:26;;;;;;;25.95;16.33;;;;;;;-143.21;99.55;71556.63;5057758;28;20465;-76
2023/06/15 09:40:54;;;;;;;26.40;17.42;;;;;;;-143.21;99.72;71556.63;5047994;28;20644;-76
2023/06/15 09:43:21;;;;;;;22.98;17.15;;;;;;;-143.21;99.39;71560.59;5057840;28;20209;-76
2023/06/15 09:45:51;;;;;;;26.25;17.55;;;;;;;-143.21;100.00;71570.53;5057446;28;20194;-75
2023/06/15 09:48:18;;;;;;;28.25;17.90;;;;;;;-143.21;100.00;71562.59;5059735;28;20199;-75
2023/06/15 09:50:50;;;;;;;29.05;18.40;;;;;;;-143.21;100.00;71562.59;5066381;28;20197;-76
2023/06/15 09:53:18;;;;;;;28.77;19.10;;;;;;;-143.21;100.00;71568.53;5058457;28;20198;-78
2023/06/15 09:55:47;;;;;;;27.50;20.00;;;;;;;-143.21;100.00;71562.59;5053018;28;20300;-76
2023/06/15 09:58:15;;;;;;;30.05;19.35;;;;;;;-143.21;100.00;71570.53;5050916;28;20232;-78
2023/06/15 10:00:42;;;;;;;31.25;21.15;;;;;;;-143.21;100.00;71582.41;5050836;28;20209;-77
2023/06/15 10:03:12;;;;;;;33.85;21.73;;;;;;;-143.21;100.00;71582.41;5057444;28;20608;-77
2023/06/15 10:05:43;;;;;;;30.90;20.05;;;;;;;-143.21;100.00;71584.41;5050937;28;20732;-77
2023/06/15 10:08:12;;;;;;;29.85;20.10;;;;;;;-143.21;100.00;71588.38;5055162;28;20202;-76
2023/06/15 10:10:43;;;;;;;29.15;20.02;;;;;;;-143.21;100.00;71596.28;5053670;28;20230;-76
2023/06/15 10:13:14;;;;;;;28.27;19.10;;;;;;;-143.21;100.00;71596.28;5063657;28;20658;-76
2023/06/15 10:15:48;;;;;;;26.90;19.95;;;;;;;-143.21;100.00;71590.34;5051614;28;20634;-77
2023/06/15 10:18:16;;;;;;;26.00;18.60;;;;;;;-143.21;100.00;71586.38;5049114;28;20213;-76
2023/06/15 10:20:43;;;;;;;23.33;18.38;;;;;;;-143.21;100.00;71576.47;5050218;28;20198;-75
2023/06/15 10:23:13;;;;;;;24.25;18.67;;;;;;;-143.21;100.00;71572.50;5061593;28;20197;-77
2023/06/15 10:25:43;;;;;;;25.25;19.65;;;;;;;-143.21;100.00;71562.59;5048589;28;20217;-76
2023/06/15 10:28:11;;;;;;;27.25;19.48;;;;;;;-143.21;100.00;71558.63;5052575;28;20202;-77
2023/06/15 10:30:46;;;;;;;25.92;19.25;;;;;;;-143.21;100.00;71546.72;5051564;28;20629;-77
2023/06/15 10:33:20;;;;;;;26.05;20.02;;;;;;;-143.21;100.00;71530.88;5048382;28;20233;-76
2023/06/15 10:35:54;;;;;;;25.52;19.33;;;;;;;-143.21;100.00;71511.03;5050286;28;20653;-76
2023/06/15 10:38:30;;;;;;;25.63;18.90;;;;;;;-143.21;100.00;71503.09;5050637;28;20198;-77
2023/06/15 10:40:58;;;;;;;26.08;19.40;;;;;;;-143.21;100.00;71501.13;5059484;28;20889;-76
2023/06/15 10:43:27;;;;;;;27.75;17.58;;;;;;;-143.21;100.00;71499.13;5059128;28;20738;-77
2023/06/15 10:45:56;;;;;;;22.17;17.58;;;;;;;-143.21;100.00;71499.13;5057166;28;20664;-78
2023/06/15 10:48:26;;;;;;;23.92;18.02;;;;;;;-143.21;100.00;71485.25;5062265;28;20319;-77
2023/06/15 10:51:01;;;;;;;23.83;18.08;;;;;;;-143.21;100.00;71477.34;5060642;28;20220;-76
2023/06/15 10:53:29;;;;;;;24.25;17.08;;;;;;;-143.21;100.00;71469.41;5056228;28;20209;-79
2023/06/15 10:55:57;;;;;;;27.42;19.27;;;;;;;-143.21;100.00;71455.53;5050611;28;21165;-76
2023/06/15 10:58:26;;;;;;;27.80;19.45;;;;;;;-143.21;100.00;71437.69;5050005;28;20214;-76
2023/06/15 11:01:10;;;;;;;27.38;19.63;;;;;;;-143.21;100.00;71417.84;5052924;28;20209;-78
2023/06/15 11:03:41;;;;;;;23.75;19.13;;;;;;;-143.21;100.00;71400.00;5053204;28;20210;-76